Terminal Aerodrome Forecast
Issued by NWS

Home | Current Version | Previous Version | Text Only | Print | Product List | Glossary On
Versions: 1 2 3 4 5 6 7 8 9 10 11 12 13 14
000
FTUS44 KCRP 290520
TAFLRD
TAF
KLRD 290520Z 2906/3006 12010KT P6SM VCTS BKN015 BKN035CB
      TEMPO 2906/2910 VRB25G45KT 2SM TSRA OVC015CB
     FM291200 15013KT P6SM VCSH BKN035
     FM291600 15015G22KT P6SM SCT045 BKN150
     FM300200 14014KT P6SM SCT012 BKN029=

USA.gov is the U.S. government's official web portal to all federal, state and local government web resources and services.